sensor_id;sensor_type;location;lat;lon;timestamp;P1;durP1;ratioP1;P2;durP2;ratioP2
72797;SDS011;61084;55.816;37.036;2023-09-19T00:00:38;10.50;;;6.80;;
72797;SDS011;61084;55.816;37.036;2023-09-19T00:03:06;9.68;;;6.22;;
72797;SDS011;61084;55.816;37.036;2023-09-19T00:05:36;10.27;;;5.85;;
72797;SDS011;61084;55.816;37.036;2023-09-19T00:08:04;12.27;;;6.13;;
72797;SDS011;61084;55.816;37.036;2023-09-19T00:10:32;12.30;;;6.50;;
72797;SDS011;61084;55.816;37.036;2023-09-19T00:13:03;10.85;;;5.90;;
72797;SDS011;61084;55.816;37.036;2023-09-19T00:15:35;9.02;;;5.53;;
72797;SDS011;61084;55.816;37.036;2023-09-19T00:18:04;8.98;;;6.07;;
72797;SDS011;61084;55.816;37.036;2023-09-19T00:20:35;10.80;;;5.75;;
72797;SDS011;61084;55.816;37.036;2023-09-19T00:23:02;17.60;;;6.88;;
72797;SDS011;61084;55.816;37.036;2023-09-19T00:25:35;11.35;;;6.18;;
72797;SDS011;61084;55.816;37.036;2023-09-19T00:28:03;15.70;;;7.35;;
72797;SDS011;61084;55.816;37.036;2023-09-19T00:30:30;15.48;;;7.30;;
72797;SDS011;61084;55.816;37.036;2023-09-19T00:32:56;16.65;;;7.50;;
72797;SDS011;61084;55.816;37.036;2023-09-19T00:35:22;14.55;;;7.72;;
72797;SDS011;61084;55.816;37.036;2023-09-19T00:37:51;13.15;;;7.25;;
72797;SDS011;61084;55.816;37.036;2023-09-19T00:40:17;16.85;;;8.55;;
72797;SDS011;61084;55.816;37.036;2023-09-19T00:42:44;18.02;;;8.57;;
72797;SDS011;61084;55.816;37.036;2023-09-19T00:45:13;17.98;;;9.40;;
72797;SDS011;61084;55.816;37.036;2023-09-19T00:47:50;16.60;;;8.75;;
72797;SDS011;61084;55.816;37.036;2023-09-19T00:50:21;15.85;;;9.20;;
72797;SDS011;61084;55.816;37.036;2023-09-19T00:52:53;13.82;;;7.82;;
72797;SDS011;61084;55.816;37.036;2023-09-19T00:55:23;14.18;;;7.32;;
72797;SDS011;61084;55.816;37.036;2023-09-19T00:57:50;16.05;;;8.38;;
72797;SDS011;61084;55.816;37.036;2023-09-19T01:00:16;16.05;;;8.65;;
72797;SDS011;61084;55.816;37.036;2023-09-19T01:02:45;16.58;;;9.13;;
72797;SDS011;61084;55.816;37.036;2023-09-19T01:05:13;19.77;;;9.90;;
72797;SDS011;61084;55.816;37.036;2023-09-19T01:07:39;17.70;;;9.35;;
72797;SDS011;61084;55.816;37.036;2023-09-19T01:10:11;19.10;;;10.30;;
72797;SDS011;61084;55.816;37.036;2023-09-19T01:27:53;21.90;;;10.57;;
72797;SDS011;61084;55.816;37.036;2023-09-19T01:30:27;17.13;;;9.73;;
72797;SDS011;61084;55.816;37.036;2023-09-19T01:33:02;19.55;;;8.85;;
72797;SDS011;61084;55.816;37.036;2023-09-19T01:35:31;14.20;;;8.65;;
72797;SDS011;61084;55.816;37.036;2023-09-19T01:37:59;15.25;;;9.60;;
72797;SDS011;61084;55.816;37.036;2023-09-19T01:40:25;17.20;;;8.73;;
72797;SDS011;61084;55.816;37.036;2023-09-19T01:42:58;16.95;;;9.32;;
72797;SDS011;61084;55.816;37.036;2023-09-19T01:45:43;15.05;;;8.15;;
72797;SDS011;61084;55.816;37.036;2023-09-19T01:48:24;13.88;;;8.10;;
72797;SDS011;61084;55.816;37.036;2023-09-19T01:51:03;17.10;;;8.27;;
72797;SDS011;61084;55.816;37.036;2023-09-19T01:53:51;16.20;;;8.77;;
72797;SDS011;61084;55.816;37.036;2023-09-19T01:56:28;14.43;;;8.57;;
72797;SDS011;61084;55.816;37.036;2023-09-19T01:59:10;17.65;;;8.65;;
72797;SDS011;61084;55.816;37.036;2023-09-19T02:01:45;14.20;;;7.60;;
72797;SDS011;61084;55.816;37.036;2023-09-19T02:04:12;13.60;;;8.20;;
72797;SDS011;61084;55.816;37.036;2023-09-19T02:06:39;17.77;;;7.38;;
72797;SDS011;61084;55.816;37.036;2023-09-19T02:09:06;12.77;;;8.05;;
72797;SDS011;61084;55.816;37.036;2023-09-19T02:11:32;12.75;;;8.02;;
72797;SDS011;61084;55.816;37.036;2023-09-19T02:13:58;15.07;;;8.13;;
72797;SDS011;61084;55.816;37.036;2023-09-19T02:16:25;16.38;;;8.48;;
72797;SDS011;61084;55.816;37.036;2023-09-19T02:18:51;15.20;;;7.75;;
72797;SDS011;61084;55.816;37.036;2023-09-19T02:21:17;17.55;;;8.18;;
72797;SDS011;61084;55.816;37.036;2023-09-19T02:23:44;17.23;;;8.52;;
72797;SDS011;61084;55.816;37.036;2023-09-19T02:26:13;16.58;;;8.93;;
72797;SDS011;61084;55.816;37.036;2023-09-19T02:28:41;12.65;;;7.80;;
72797;SDS011;61084;55.816;37.036;2023-09-19T02:31:08;19.13;;;9.80;;
72797;SDS011;61084;55.816;37.036;2023-09-19T02:33:35;13.32;;;8.90;;
72797;SDS011;61084;55.816;37.036;2023-09-19T02:36:01;21.92;;;10.13;;
72797;SDS011;61084;55.816;37.036;2023-09-19T02:38:29;17.13;;;7.85;;
72797;SDS011;61084;55.816;37.036;2023-09-19T02:40:55;20.35;;;9.95;;
72797;SDS011;61084;55.816;37.036;2023-09-19T02:43:22;16.30;;;8.07;;
72797;SDS011;61084;55.816;37.036;2023-09-19T02:45:49;18.85;;;8.95;;
72797;SDS011;61084;55.816;37.036;2023-09-19T02:48:16;14.90;;;7.90;;
72797;SDS011;61084;55.816;37.036;2023-09-19T02:50:44;17.05;;;9.07;;
72797;SDS011;61084;55.816;37.036;2023-09-19T02:53:10;18.48;;;8.43;;
72797;SDS011;61084;55.816;37.036;2023-09-19T02:55:38;18.98;;;10.65;;
72797;SDS011;61084;55.816;37.036;2023-09-19T02:58:06;15.43;;;9.15;;
72797;SDS011;61084;55.816;37.036;2023-09-19T03:03:07;16.77;;;8.65;;
72797;SDS011;61084;55.816;37.036;2023-09-19T03:05:34;13.68;;;8.35;;
72797;SDS011;61084;55.816;37.036;2023-09-19T03:08:00;18.70;;;8.60;;
72797;SDS011;61084;55.816;37.036;2023-09-19T03:10:27;18.25;;;9.75;;
72797;SDS011;61084;55.816;37.036;2023-09-19T03:12:56;17.20;;;9.10;;
72797;SDS011;61084;55.816;37.036;2023-09-19T03:15:25;16.45;;;8.90;;
72797;SDS011;61084;55.816;37.036;2023-09-19T03:17:52;16.77;;;8.95;;
72797;SDS011;61084;55.816;37.036;2023-09-19T03:20:21;20.25;;;10.55;;
72797;SDS011;61084;55.816;37.036;2023-09-19T03:22:49;15.95;;;9.50;;
72797;SDS011;61084;55.816;37.036;2023-09-19T03:25:16;16.17;;;9.50;;
72797;SDS011;61084;55.816;37.036;2023-09-19T03:27:44;17.20;;;9.85;;
72797;SDS011;61084;55.816;37.036;2023-09-19T03:30:12;14.68;;;9.02;;
72797;SDS011;61084;55.816;37.036;2023-09-19T03:32:44;16.60;;;9.98;;
72797;SDS011;61084;55.816;37.036;2023-09-19T03:35:12;19.30;;;9.00;;
72797;SDS011;61084;55.816;37.036;2023-09-19T03:37:44;17.98;;;9.98;;
72797;SDS011;61084;55.816;37.036;2023-09-19T03:40:10;16.92;;;10.18;;
72797;SDS011;61084;55.816;37.036;2023-09-19T03:45:09;17.67;;;8.70;;
72797;SDS011;61084;55.816;37.036;2023-09-19T03:47:41;19.83;;;10.57;;
72797;SDS011;61084;55.816;37.036;2023-09-19T03:50:09;21.23;;;11.70;;
72797;SDS011;61084;55.816;37.036;2023-09-19T03:52:38;24.17;;;11.85;;
72797;SDS011;61084;55.816;37.036;2023-09-19T03:55:04;22.13;;;11.52;;
72797;SDS011;61084;55.816;37.036;2023-09-19T03:57:30;21.73;;;12.13;;
72797;SDS011;61084;55.816;37.036;2023-09-19T03:59:57;22.65;;;11.20;;
72797;SDS011;61084;55.816;37.036;2023-09-19T04:02:23;25.30;;;12.85;;
72797;SDS011;61084;55.816;37.036;2023-09-19T04:04:50;21.48;;;12.32;;
72797;SDS011;61084;55.816;37.036;2023-09-19T04:09:45;20.67;;;11.00;;
72797;SDS011;61084;55.816;37.036;2023-09-19T04:12:11;20.63;;;12.23;;
72797;SDS011;61084;55.816;37.036;2023-09-19T04:14:37;20.60;;;11.10;;
72797;SDS011;61084;55.816;37.036;2023-09-19T04:17:04;22.55;;;11.75;;
72797;SDS011;61084;55.816;37.036;2023-09-19T04:19:33;26.70;;;10.95;;
72797;SDS011;61084;55.816;37.036;2023-09-19T04:21:59;22.52;;;11.40;;
72797;SDS011;61084;55.816;37.036;2023-09-19T04:24:25;20.67;;;11.63;;
72797;SDS011;61084;55.816;37.036;2023-09-19T04:26:51;19.27;;;11.63;;
72797;SDS011;61084;55.816;37.036;2023-09-19T04:29:18;21.08;;;12.20;;
72797;SDS011;61084;55.816;37.036;2023-09-19T04:31:44;22.75;;;13.07;;
72797;SDS011;61084;55.816;37.036;2023-09-19T04:34:11;21.38;;;11.65;;
72797;SDS011;61084;55.816;37.036;2023-09-19T04:36:41;22.17;;;12.75;;
72797;SDS011;61084;55.816;37.036;2023-09-19T04:39:07;27.00;;;13.25;;
72797;SDS011;61084;55.816;37.036;2023-09-19T04:41:33;26.25;;;13.27;;
72797;SDS011;61084;55.816;37.036;2023-09-19T04:44:00;34.80;;;15.80;;
72797;SDS011;61084;55.816;37.036;2023-09-19T04:46:26;31.05;;;15.80;;
72797;SDS011;61084;55.816;37.036;2023-09-19T04:48:52;36.92;;;17.70;;
72797;SDS011;61084;55.816;37.036;2023-09-19T04:51:18;40.38;;;18.60;;
72797;SDS011;61084;55.816;37.036;2023-09-19T04:53:46;34.03;;;17.63;;
72797;SDS011;61084;55.816;37.036;2023-09-19T04:56:13;38.65;;;19.58;;
72797;SDS011;61084;55.816;37.036;2023-09-19T04:58:39;35.80;;;17.80;;
72797;SDS011;61084;55.816;37.036;2023-09-19T05:01:04;35.47;;;19.02;;
72797;SDS011;61084;55.816;37.036;2023-09-19T05:03:31;41.78;;;20.90;;
72797;SDS011;61084;55.816;37.036;2023-09-19T05:05:57;40.58;;;19.40;;
72797;SDS011;61084;55.816;37.036;2023-09-19T05:08:22;47.05;;;21.30;;
72797;SDS011;61084;55.816;37.036;2023-09-19T05:10:48;42.17;;;21.70;;
72797;SDS011;61084;55.816;37.036;2023-09-19T05:13:14;48.13;;;21.40;;
72797;SDS011;61084;55.816;37.036;2023-09-19T05:15:40;42.80;;;21.15;;
72797;SDS011;61084;55.816;37.036;2023-09-19T05:18:06;44.30;;;20.02;;
72797;SDS011;61084;55.816;37.036;2023-09-19T05:20:32;41.33;;;20.92;;
72797;SDS011;61084;55.816;37.036;2023-09-19T05:23:04;43.88;;;21.77;;
72797;SDS011;61084;55.816;37.036;2023-09-19T05:25:33;39.20;;;18.83;;
72797;SDS011;61084;55.816;37.036;2023-09-19T05:28:02;40.92;;;20.02;;
72797;SDS011;61084;55.816;37.036;2023-09-19T05:30:31;39.20;;;20.55;;
72797;SDS011;61084;55.816;37.036;2023-09-19T05:32:57;42.13;;;20.38;;
72797;SDS011;61084;55.816;37.036;2023-09-19T05:35:24;38.83;;;20.17;;
72797;SDS011;61084;55.816;37.036;2023-09-19T05:37:52;46.65;;;18.17;;
72797;SDS011;61084;55.816;37.036;2023-09-19T05:40:19;36.55;;;19.42;;
72797;SDS011;61084;55.816;37.036;2023-09-19T05:42:45;38.40;;;20.02;;
72797;SDS011;61084;55.816;37.036;2023-09-19T05:45:13;37.35;;;18.08;;
72797;SDS011;61084;55.816;37.036;2023-09-19T05:47:39;33.40;;;18.77;;
72797;SDS011;61084;55.816;37.036;2023-09-19T05:50:08;31.42;;;17.60;;
72797;SDS011;61084;55.816;37.036;2023-09-19T05:52:35;37.13;;;17.58;;
72797;SDS011;61084;55.816;37.036;2023-09-19T05:55:06;37.80;;;18.95;;
72797;SDS011;61084;55.816;37.036;2023-09-19T05:57:33;34.92;;;18.83;;
72797;SDS011;61084;55.816;37.036;2023-09-19T06:00:08;33.92;;;18.15;;
72797;SDS011;61084;55.816;37.036;2023-09-19T06:02:38;32.50;;;17.80;;
72797;SDS011;61084;55.816;37.036;2023-09-19T06:05:06;35.03;;;17.75;;
72797;SDS011;61084;55.816;37.036;2023-09-19T06:07:35;32.78;;;17.85;;
72797;SDS011;61084;55.816;37.036;2023-09-19T06:10:04;31.27;;;17.40;;
72797;SDS011;61084;55.816;37.036;2023-09-19T06:12:32;34.20;;;17.35;;
72797;SDS011;61084;55.816;37.036;2023-09-19T06:15:03;30.90;;;15.75;;
72797;SDS011;61084;55.816;37.036;2023-09-19T06:17:34;31.48;;;17.98;;
72797;SDS011;61084;55.816;37.036;2023-09-19T06:20:06;31.55;;;16.65;;
72797;SDS011;61084;55.816;37.036;2023-09-19T06:22:38;35.00;;;16.25;;
72797;SDS011;61084;55.816;37.036;2023-09-19T06:25:07;33.08;;;17.63;;
72797;SDS011;61084;55.816;37.036;2023-09-19T06:27:37;33.25;;;17.45;;
72797;SDS011;61084;55.816;37.036;2023-09-19T06:30:04;32.30;;;17.02;;
72797;SDS011;61084;55.816;37.036;2023-09-19T06:32:32;33.28;;;16.63;;
72797;SDS011;61084;55.816;37.036;2023-09-19T06:34:58;31.55;;;17.23;;
72797;SDS011;61084;55.816;37.036;2023-09-19T06:39:53;27.30;;;14.45;;
72797;SDS011;61084;55.816;37.036;2023-09-19T06:42:19;33.28;;;15.57;;
72797;SDS011;61084;55.816;37.036;2023-09-19T06:44:45;27.27;;;15.35;;
72797;SDS011;61084;55.816;37.036;2023-09-19T06:47:11;28.02;;;15.45;;
72797;SDS011;61084;55.816;37.036;2023-09-19T06:49:37;23.75;;;15.02;;
72797;SDS011;61084;55.816;37.036;2023-09-19T06:52:03;26.55;;;15.25;;
72797;SDS011;61084;55.816;37.036;2023-09-19T06:54:30;28.23;;;15.48;;
72797;SDS011;61084;55.816;37.036;2023-09-19T06:56:57;21.35;;;13.95;;
72797;SDS011;61084;55.816;37.036;2023-09-19T06:59:26;24.08;;;14.00;;
72797;SDS011;61084;55.816;37.036;2023-09-19T07:01:51;23.73;;;13.02;;
72797;SDS011;61084;55.816;37.036;2023-09-19T07:04:18;24.13;;;13.38;;
72797;SDS011;61084;55.816;37.036;2023-09-19T07:06:50;21.73;;;13.43;;
72797;SDS011;61084;55.816;37.036;2023-09-19T07:09:17;21.25;;;12.43;;
72797;SDS011;61084;55.816;37.036;2023-09-19T07:11:45;24.70;;;14.18;;
72797;SDS011;61084;55.816;37.036;2023-09-19T07:14:11;23.45;;;13.60;;
72797;SDS011;61084;55.816;37.036;2023-09-19T07:16:37;22.67;;;13.30;;
72797;SDS011;61084;55.816;37.036;2023-09-19T07:19:05;28.45;;;12.55;;
72797;SDS011;61084;55.816;37.036;2023-09-19T07:21:31;22.63;;;13.90;;
72797;SDS011;61084;55.816;37.036;2023-09-19T07:24:01;25.27;;;13.02;;
72797;SDS011;61084;55.816;37.036;2023-09-19T07:26:29;20.75;;;13.32;;
72797;SDS011;61084;55.816;37.036;2023-09-19T07:28:56;22.02;;;12.10;;
72797;SDS011;61084;55.816;37.036;2023-09-19T07:33:50;21.27;;;12.90;;
72797;SDS011;61084;55.816;37.036;2023-09-19T07:36:17;22.85;;;12.95;;
72797;SDS011;61084;55.816;37.036;2023-09-19T07:38:43;22.38;;;12.70;;
72797;SDS011;61084;55.816;37.036;2023-09-19T07:41:09;17.17;;;11.63;;
72797;SDS011;61084;55.816;37.036;2023-09-19T07:43:35;19.23;;;12.23;;
72797;SDS011;61084;55.816;37.036;2023-09-19T07:46:03;23.70;;;12.35;;
72797;SDS011;61084;55.816;37.036;2023-09-19T07:48:33;28.13;;;12.25;;
72797;SDS011;61084;55.816;37.036;2023-09-19T07:51:02;24.38;;;12.45;;
72797;SDS011;61084;55.816;37.036;2023-09-19T07:53:29;24.40;;;12.43;;
72797;SDS011;61084;55.816;37.036;2023-09-19T07:56:05;19.25;;;12.18;;
72797;SDS011;61084;55.816;37.036;2023-09-19T07:58:32;23.08;;;13.55;;
72797;SDS011;61084;55.816;37.036;2023-09-19T08:01:09;21.02;;;12.90;;
72797;SDS011;61084;55.816;37.036;2023-09-19T08:03:36;24.70;;;14.02;;
72797;SDS011;61084;55.816;37.036;2023-09-19T08:06:06;23.60;;;14.15;;
72797;SDS011;61084;55.816;37.036;2023-09-19T08:08:33;22.67;;;13.18;;
72797;SDS011;61084;55.816;37.036;2023-09-19T08:11:04;19.30;;;12.32;;
72797;SDS011;61084;55.816;37.036;2023-09-19T08:13:41;26.30;;;14.98;;
72797;SDS011;61084;55.816;37.036;2023-09-19T08:16:11;28.10;;;14.43;;
72797;SDS011;61084;55.816;37.036;2023-09-19T08:18:37;25.13;;;13.88;;
72797;SDS011;61084;55.816;37.036;2023-09-19T08:21:07;26.63;;;14.05;;
72797;SDS011;61084;55.816;37.036;2023-09-19T08:23:37;27.83;;;14.65;;
72797;SDS011;61084;55.816;37.036;2023-09-19T08:26:07;25.77;;;13.35;;
72797;SDS011;61084;55.816;37.036;2023-09-19T08:28:35;24.45;;;12.95;;
72797;SDS011;61084;55.816;37.036;2023-09-19T08:31:02;20.15;;;13.80;;
72797;SDS011;61084;55.816;37.036;2023-09-19T08:33:33;22.67;;;13.82;;
72797;SDS011;61084;55.816;37.036;2023-09-19T08:35:59;20.52;;;12.77;;
72797;SDS011;61084;55.816;37.036;2023-09-19T08:38:26;24.92;;;15.15;;
72797;SDS011;61084;55.816;37.036;2023-09-19T08:40:57;29.00;;;14.52;;
72797;SDS011;61084;55.816;37.036;2023-09-19T08:43:26;27.05;;;15.50;;
72797;SDS011;61084;55.816;37.036;2023-09-19T08:46:14;26.90;;;16.23;;
72797;SDS011;61084;55.816;37.036;2023-09-19T08:48:51;21.02;;;14.50;;
72797;SDS011;61084;55.816;37.036;2023-09-19T08:51:29;24.90;;;14.32;;
72797;SDS011;61084;55.816;37.036;2023-09-19T08:54:08;28.23;;;15.40;;
72797;SDS011;61084;55.816;37.036;2023-09-19T08:56:39;22.60;;;13.90;;
72797;SDS011;61084;55.816;37.036;2023-09-19T08:59:08;25.00;;;14.40;;
72797;SDS011;61084;55.816;37.036;2023-09-19T09:01:35;27.58;;;14.20;;
72797;SDS011;61084;55.816;37.036;2023-09-19T09:04:06;24.45;;;15.43;;
72797;SDS011;61084;55.816;37.036;2023-09-19T09:06:39;22.35;;;14.80;;
72797;SDS011;61084;55.816;37.036;2023-09-19T09:09:06;22.83;;;14.10;;
72797;SDS011;61084;55.816;37.036;2023-09-19T09:11:34;25.00;;;14.35;;
72797;SDS011;61084;55.816;37.036;2023-09-19T09:14:05;21.52;;;13.35;;
72797;SDS011;61084;55.816;37.036;2023-09-19T09:16:39;24.38;;;13.90;;
72797;SDS011;61084;55.816;37.036;2023-09-19T09:19:14;24.88;;;15.10;;
72797;SDS011;61084;55.816;37.036;2023-09-19T09:21:46;24.52;;;15.45;;
72797;SDS011;61084;55.816;37.036;2023-09-19T09:24:29;21.45;;;14.85;;
72797;SDS011;61084;55.816;37.036;2023-09-19T09:26:56;26.25;;;15.02;;
72797;SDS011;61084;55.816;37.036;2023-09-19T09:32:25;25.98;;;14.93;;
72797;SDS011;61084;55.816;37.036;2023-09-19T09:35:01;28.27;;;13.98;;
72797;SDS011;61084;55.816;37.036;2023-09-19T09:37:39;23.83;;;13.98;;
72797;SDS011;61084;55.816;37.036;2023-09-19T09:40:12;23.60;;;13.95;;
72797;SDS011;61084;55.816;37.036;2023-09-19T09:42:41;19.02;;;13.15;;
72797;SDS011;61084;55.816;37.036;2023-09-19T09:47:47;21.45;;;13.20;;
72797;SDS011;61084;55.816;37.036;2023-09-19T09:50:27;22.88;;;14.02;;
72797;SDS011;61084;55.816;37.036;2023-09-19T09:53:23;22.23;;;12.57;;
72797;SDS011;61084;55.816;37.036;2023-09-19T09:56:13;25.10;;;12.65;;
72797;SDS011;61084;55.816;37.036;2023-09-19T09:58:51;21.33;;;13.00;;
72797;SDS011;61084;55.816;37.036;2023-09-19T10:01:26;25.15;;;12.75;;
72797;SDS011;61084;55.816;37.036;2023-09-19T10:03:58;21.48;;;12.52;;
72797;SDS011;61084;55.816;37.036;2023-09-19T10:06:26;20.13;;;11.35;;
72797;SDS011;61084;55.816;37.036;2023-09-19T10:09:02;18.73;;;11.65;;
72797;SDS011;61084;55.816;37.036;2023-09-19T10:11:46;22.17;;;12.45;;
72797;SDS011;61084;55.816;37.036;2023-09-19T10:14:27;19.23;;;11.30;;
72797;SDS011;61084;55.816;37.036;2023-09-19T10:17:01;28.00;;;12.10;;
72797;SDS011;61084;55.816;37.036;2023-09-19T10:19:37;24.48;;;11.70;;
72797;SDS011;61084;55.816;37.036;2023-09-19T10:22:13;23.00;;;12.27;;
72797;SDS011;61084;55.816;37.036;2023-09-19T10:24:49;20.60;;;11.40;;
72797;SDS011;61084;55.816;37.036;2023-09-19T10:27:19;20.08;;;11.20;;
72797;SDS011;61084;55.816;37.036;2023-09-19T10:29:48;18.08;;;11.02;;
72797;SDS011;61084;55.816;37.036;2023-09-19T10:32:24;18.92;;;11.23;;
72797;SDS011;61084;55.816;37.036;2023-09-19T10:34:56;17.90;;;11.40;;
72797;SDS011;61084;55.816;37.036;2023-09-19T10:37:26;19.48;;;10.98;;
72797;SDS011;61084;55.816;37.036;2023-09-19T10:40:02;21.52;;;11.52;;
72797;SDS011;61084;55.816;37.036;2023-09-19T10:42:34;19.77;;;10.90;;
72797;SDS011;61084;55.816;37.036;2023-09-19T10:45:04;22.75;;;10.20;;
72797;SDS011;61084;55.816;37.036;2023-09-19T10:47:39;20.50;;;10.98;;
72797;SDS011;61084;55.816;37.036;2023-09-19T10:50:18;18.35;;;11.00;;
72797;SDS011;61084;55.816;37.036;2023-09-19T10:52:56;21.20;;;10.73;;
72797;SDS011;61084;55.816;37.036;2023-09-19T10:55:32;22.83;;;10.73;;
72797;SDS011;61084;55.816;37.036;2023-09-19T10:58:01;18.40;;;11.27;;
72797;SDS011;61084;55.816;37.036;2023-09-19T11:01:00;16.45;;;10.20;;
72797;SDS011;61084;55.816;37.036;2023-09-19T11:03:44;18.65;;;9.98;;
72797;SDS011;61084;55.816;37.036;2023-09-19T11:06:21;22.75;;;10.18;;
72797;SDS011;61084;55.816;37.036;2023-09-19T11:09:03;39.13;;;16.52;;
72797;SDS011;61084;55.816;37.036;2023-09-19T11:23:16;19.42;;;10.65;;
72797;SDS011;61084;55.816;37.036;2023-09-19T11:25:41;18.65;;;10.93;;
72797;SDS011;61084;55.816;37.036;2023-09-19T11:31:41;24.75;;;10.18;;
72797;SDS011;61084;55.816;37.036;2023-09-19T11:42:54;18.65;;;10.98;;
72797;SDS011;61084;55.816;37.036;2023-09-19T11:48:15;16.25;;;9.63;;
72797;SDS011;61084;55.816;37.036;2023-09-19T11:50:46;19.00;;;9.77;;
72797;SDS011;61084;55.816;37.036;2023-09-19T11:53:16;16.02;;;8.73;;
72797;SDS011;61084;55.816;37.036;2023-09-19T11:55:52;16.48;;;8.00;;
72797;SDS011;61084;55.816;37.036;2023-09-19T11:58:19;13.80;;;7.13;;
72797;SDS011;61084;55.816;37.036;2023-09-19T12:01:08;12.70;;;7.00;;
72797;SDS011;61084;55.816;37.036;2023-09-19T12:03:52;12.73;;;6.65;;
72797;SDS011;61084;55.816;37.036;2023-09-19T12:06:23;12.60;;;6.78;;
72797;SDS011;61084;55.816;37.036;2023-09-19T12:08:56;8.68;;;6.13;;
72797;SDS011;61084;55.816;37.036;2023-09-19T12:11:48;6.70;;;4.43;;
72797;SDS011;61084;55.816;37.036;2023-09-19T12:14:26;8.13;;;4.78;;
72797;SDS011;61084;55.816;37.036;2023-09-19T12:16:57;5.65;;;4.40;;
72797;SDS011;61084;55.816;37.036;2023-09-19T12:19:26;6.72;;;4.22;;
72797;SDS011;61084;55.816;37.036;2023-09-19T12:21:57;8.82;;;5.55;;
72797;SDS011;61084;55.816;37.036;2023-09-19T12:24:33;9.30;;;5.35;;
72797;SDS011;61084;55.816;37.036;2023-09-19T12:27:03;5.93;;;4.53;;
72797;SDS011;61084;55.816;37.036;2023-09-19T12:29:46;9.15;;;4.82;;
72797;SDS011;61084;55.816;37.036;2023-09-19T12:32:42;5.88;;;4.53;;
72797;SDS011;61084;55.816;37.036;2023-09-19T12:35:30;6.50;;;3.97;;
72797;SDS011;61084;55.816;37.036;2023-09-19T12:38:01;6.15;;;4.05;;
72797;SDS011;61084;55.816;37.036;2023-09-19T12:40:29;6.32;;;4.15;;
72797;SDS011;61084;55.816;37.036;2023-09-19T12:43:01;6.88;;;4.22;;
72797;SDS011;61084;55.816;37.036;2023-09-19T12:45:31;8.30;;;4.30;;
72797;SDS011;61084;55.816;37.036;2023-09-19T12:48:19;6.57;;;3.95;;
72797;SDS011;61084;55.816;37.036;2023-09-19T12:51:08;6.72;;;4.72;;
72797;SDS011;61084;55.816;37.036;2023-09-19T12:53:44;7.55;;;4.50;;
72797;SDS011;61084;55.816;37.036;2023-09-19T12:56:18;6.05;;;4.28;;
72797;SDS011;61084;55.816;37.036;2023-09-19T12:58:51;10.25;;;5.40;;
72797;SDS011;61084;55.816;37.036;2023-09-19T13:01:23;18.90;;;5.18;;
72797;SDS011;61084;55.816;37.036;2023-09-19T13:04:17;11.13;;;4.55;;
72797;SDS011;61084;55.816;37.036;2023-09-19T13:06:49;8.32;;;4.30;;
72797;SDS011;61084;55.816;37.036;2023-09-19T13:09:17;13.32;;;4.97;;
72797;SDS011;61084;55.816;37.036;2023-09-19T13:11:46;7.55;;;5.10;;
72797;SDS011;61084;55.816;37.036;2023-09-19T13:16:58;9.07;;;4.95;;
72797;SDS011;61084;55.816;37.036;2023-09-19T13:19:45;7.20;;;4.05;;
72797;SDS011;61084;55.816;37.036;2023-09-19T13:25:20;11.48;;;4.68;;
72797;SDS011;61084;55.816;37.036;2023-09-19T13:27:51;6.18;;;4.65;;
72797;SDS011;61084;55.816;37.036;2023-09-19T13:30:23;9.63;;;5.03;;
72797;SDS011;61084;55.816;37.036;2023-09-19T13:32:52;7.28;;;4.70;;
72797;SDS011;61084;55.816;37.036;2023-09-19T13:35:21;9.20;;;4.50;;
72797;SDS011;61084;55.816;37.036;2023-09-19T13:37:48;6.35;;;4.45;;
72797;SDS011;61084;55.816;37.036;2023-09-19T13:40:17;8.07;;;5.18;;
72797;SDS011;61084;55.816;37.036;2023-09-19T13:42:46;10.27;;;5.05;;
72797;SDS011;61084;55.816;37.036;2023-09-19T13:45:16;8.50;;;4.70;;
72797;SDS011;61084;55.816;37.036;2023-09-19T13:47:43;8.10;;;5.25;;
72797;SDS011;61084;55.816;37.036;2023-09-19T13:50:13;15.02;;;8.65;;
72797;SDS011;61084;55.816;37.036;2023-09-19T13:52:42;9.95;;;6.32;;
72797;SDS011;61084;55.816;37.036;2023-09-19T13:57:34;11.65;;;8.02;;
72797;SDS011;61084;55.816;37.036;2023-09-19T14:00:00;14.07;;;9.07;;
72797;SDS011;61084;55.816;37.036;2023-09-19T14:02:26;25.75;;;12.15;;
72797;SDS011;61084;55.816;37.036;2023-09-19T14:04:53;43.60;;;18.73;;
72797;SDS011;61084;55.816;37.036;2023-09-19T14:07:27;24.92;;;10.88;;
72797;SDS011;61084;55.816;37.036;2023-09-19T14:09:53;27.90;;;15.23;;
72797;SDS011;61084;55.816;37.036;2023-09-19T14:12:20;48.13;;;34.20;;
72797;SDS011;61084;55.816;37.036;2023-09-19T14:14:46;140.65;;;100.15;;
72797;SDS011;61084;55.816;37.036;2023-09-19T14:17:15;117.72;;;75.05;;
72797;SDS011;61084;55.816;37.036;2023-09-19T14:19:42;51.08;;;30.70;;
72797;SDS011;61084;55.816;37.036;2023-09-19T14:22:09;182.25;;;105.35;;
72797;SDS011;61084;55.816;37.036;2023-09-19T14:24:36;229.52;;;133.85;;
72797;SDS011;61084;55.816;37.036;2023-09-19T14:27:06;47.83;;;26.83;;
72797;SDS011;61084;55.816;37.036;2023-09-19T14:29:36;258.17;;;159.93;;
72797;SDS011;61084;55.816;37.036;2023-09-19T14:32:02;384.50;;;251.13;;
72797;SDS011;61084;55.816;37.036;2023-09-19T14:34:37;94.40;;;55.70;;
72797;SDS011;61084;55.816;37.036;2023-09-19T14:37:08;117.28;;;69.75;;
72797;SDS011;61084;55.816;37.036;2023-09-19T14:39:34;120.50;;;68.43;;
72797;SDS011;61084;55.816;37.036;2023-09-19T14:42:00;75.30;;;42.17;;
72797;SDS011;61084;55.816;37.036;2023-09-19T14:44:26;62.10;;;35.65;;
72797;SDS011;61084;55.816;37.036;2023-09-19T14:46:58;55.63;;;32.50;;
72797;SDS011;61084;55.816;37.036;2023-09-19T14:49:24;43.38;;;24.88;;
72797;SDS011;61084;55.816;37.036;2023-09-19T14:54:17;45.45;;;22.42;;
72797;SDS011;61084;55.816;37.036;2023-09-19T14:56:44;49.00;;;24.42;;
72797;SDS011;61084;55.816;37.036;2023-09-19T14:59:13;44.22;;;18.38;;
72797;SDS011;61084;55.816;37.036;2023-09-19T15:01:41;153.18;;;61.30;;
72797;SDS011;61084;55.816;37.036;2023-09-19T15:04:10;139.73;;;60.80;;
72797;SDS011;61084;55.816;37.036;2023-09-19T15:06:36;142.32;;;58.90;;
72797;SDS011;61084;55.816;37.036;2023-09-19T15:09:02;132.75;;;57.50;;
72797;SDS011;61084;55.816;37.036;2023-09-19T15:11:30;133.63;;;56.65;;
72797;SDS011;61084;55.816;37.036;2023-09-19T15:13:56;90.80;;;41.00;;
72797;SDS011;61084;55.816;37.036;2023-09-19T15:16:22;71.00;;;33.25;;
72797;SDS011;61084;55.816;37.036;2023-09-19T15:18:48;71.70;;;34.22;;
72797;SDS011;61084;55.816;37.036;2023-09-19T15:21:14;73.55;;;44.13;;
72797;SDS011;61084;55.816;37.036;2023-09-19T15:23:41;69.00;;;38.90;;
72797;SDS011;61084;55.816;37.036;2023-09-19T15:26:10;66.03;;;35.88;;
72797;SDS011;61084;55.816;37.036;2023-09-19T15:28:38;70.53;;;36.33;;
72797;SDS011;61084;55.816;37.036;2023-09-19T15:31:05;61.75;;;34.47;;
72797;SDS011;61084;55.816;37.036;2023-09-19T15:33:32;54.33;;;28.45;;
72797;SDS011;61084;55.816;37.036;2023-09-19T15:36:02;47.83;;;25.90;;
72797;SDS011;61084;55.816;37.036;2023-09-19T15:38:29;57.50;;;32.35;;
72797;SDS011;61084;55.816;37.036;2023-09-19T15:41:00;48.72;;;26.60;;